Time;durP1;ratioP1;P1;durP2;ratioP2;P2;SDS_P1;SDS_P2;PMS_P1;PMS_P2;Temp;Humidity;BMP_temperature;BMP_pressure;BME280_temperature;BME280_humidity;BME280_pressure;Samples;Min_cycle;Max_cycle;Signal;HPM_P1;HPM_P2
2023/08/03 00:02:12;;;;;;;5.83;1.70;;;;;;;;;;5043486;28;20522;-80
2023/08/03 00:04:39;;;;;;;6.97;1.70;;;;;;;;;;5043149;28;20461;-79
2023/08/03 00:07:06;;;;;;;6.57;1.90;;;;;;;;;;5040088;28;20541;-79
2023/08/03 00:09:33;;;;;;;8.23;2.03;;;;;;;;;;5038105;28;20461;-80
2023/08/03 00:11:59;;;;;;;4.83;1.60;;;;;;;;;;5038383;28;20465;-80
2023/08/03 00:14:26;;;;;;;5.67;2.07;;;;;;;;;;5037113;28;20548;-80
2023/08/03 00:16:52;;;;;;;6.70;2.43;;;;;;;;;;5041386;28;21032;-79
2023/08/03 00:19:18;;;;;;;9.40;1.57;;;;;;;;;;5038233;28;20489;-81
2023/08/03 00:21:45;;;;;;;5.43;1.80;;;;;;;;;;5042870;28;20473;-80
2023/08/03 00:24:13;;;;;;;5.27;1.30;;;;;;;;;;5043287;28;20536;-80
2023/08/03 00:26:39;;;;;;;3.53;1.60;;;;;;;;;;5035654;28;20482;-80
2023/08/03 00:29:05;;;;;;;2.90;1.00;;;;;;;;;;5043041;28;20513;-78
2023/08/03 00:31:32;;;;;;;2.13;1.43;;;;;;;;;;5043295;28;20520;-80
2023/08/03 00:33:58;;;;;;;2.30;1.07;;;;;;;;;;5033265;28;20513;-80
2023/08/03 00:36:24;;;;;;;2.63;1.30;;;;;;;;;;5042202;28;20541;-79
2023/08/03 00:38:51;;;;;;;8.50;1.43;;;;;;;;;;5038918;28;20484;-80
2023/08/03 00:41:19;;;;;;;4.77;1.43;;;;;;;;;;5043036;28;20481;-79
2023/08/03 00:43:45;;;;;;;6.07;1.37;;;;;;;;;;5043340;28;20473;-80
2023/08/03 00:46:11;;;;;;;5.57;1.27;;;;;;;;;;5037389;28;20500;-80
2023/08/03 00:48:38;;;;;;;4.83;1.30;;;;;;;;;;5037651;28;20465;-79
2023/08/03 00:51:04;;;;;;;4.80;1.40;;;;;;;;;;5041310;28;20519;-80
2023/08/03 00:53:31;;;;;;;5.03;1.60;;;;;;;;;;5035208;28;20454;-79
2023/08/03 00:55:57;;;;;;;4.97;1.30;;;;;;;;;;5043488;28;20525;-80
2023/08/03 00:58:25;;;;;;;6.03;1.83;;;;;;;;;;5042832;28;20521;-82
2023/08/03 01:00:51;;;;;;;4.87;1.37;;;;;;;;;;5044004;28;20481;-80
2023/08/03 01:03:18;;;;;;;6.10;1.50;;;;;;;;;;5043229;28;20477;-80
2023/08/03 01:05:44;;;;;;;2.20;1.10;;;;;;;;;;5043467;28;20564;-80
2023/08/03 01:08:10;;;;;;;3.73;1.30;;;;;;;;;;5042822;28;20484;-80
2023/08/03 01:10:37;;;;;;;3.23;1.23;;;;;;;;;;5043844;28;20482;-81
2023/08/03 01:13:03;;;;;;;5.33;1.30;;;;;;;;;;5042176;28;20509;-81
2023/08/03 01:15:31;;;;;;;5.37;1.97;;;;;;;;;;5043186;28;21034;-80
2023/08/03 01:17:58;;;;;;;3.00;1.40;;;;;;;;;;5039985;28;20536;-81
2023/08/03 01:20:24;;;;;;;5.67;1.50;;;;;;;;;;5042834;28;20474;-80
2023/08/03 01:22:52;;;;;;;5.07;1.70;;;;;;;;;;5043475;28;20474;-80
2023/08/03 01:25:18;;;;;;;3.13;1.23;;;;;;;;;;5043010;28;20544;-80
2023/08/03 01:27:47;;;;;;;3.17;1.40;;;;;;;;;;5042596;28;20537;-81
2023/08/03 01:30:13;;;;;;;3.87;1.73;;;;;;;;;;5043057;28;20497;-80
2023/08/03 01:32:40;;;;;;;4.40;1.53;;;;;;;;;;5039428;28;20561;-80
2023/08/03 01:35:07;;;;;;;5.67;1.47;;;;;;;;;;5041694;28;21037;-79
2023/08/03 01:37:34;;;;;;;1.90;1.20;;;;;;;;;;5043121;28;20446;-80
2023/08/03 01:40:02;;;;;;;3.90;1.23;;;;;;;;;;5042214;28;20548;-80
2023/08/03 01:42:28;;;;;;;5.97;1.27;;;;;;;;;;5042220;28;20522;-80
2023/08/03 01:44:55;;;;;;;4.87;1.60;;;;;;;;;;5042255;28;20556;-79
2023/08/03 01:47:21;;;;;;;2.47;1.70;;;;;;;;;;5042586;28;20555;-80
2023/08/03 01:49:47;;;;;;;3.20;1.27;;;;;;;;;;5042655;28;20593;-78
2023/08/03 01:52:14;;;;;;;3.00;1.40;;;;;;;;;;5041268;28;21288;-78
2023/08/03 01:54:41;;;;;;;4.00;2.00;;;;;;;;;;5040933;28;20523;-79
2023/08/03 01:57:08;;;;;;;2.73;1.90;;;;;;;;;;5039363;28;21022;-79
2023/08/03 01:59:35;;;;;;;3.13;1.10;;;;;;;;;;5041359;28;21061;-79
2023/08/03 02:02:01;;;;;;;6.23;1.90;;;;;;;;;;5033154;28;20521;-80
2023/08/03 02:04:28;;;;;;;3.50;1.40;;;;;;;;;;5039853;28;21490;-79
2023/08/03 02:06:57;;;;;;;2.90;1.27;;;;;;;;;;5041346;28;20592;-78
2023/08/03 02:09:23;;;;;;;3.17;1.57;;;;;;;;;;5042435;28;20457;-79
2023/08/03 02:11:50;;;;;;;4.00;1.73;;;;;;;;;;5041764;28;20496;-79
2023/08/03 02:14:18;;;;;;;5.60;2.00;;;;;;;;;;5041515;28;20568;-80
2023/08/03 02:16:45;;;;;;;4.27;1.80;;;;;;;;;;5042603;28;20536;-81
2023/08/03 02:19:11;;;;;;;1.93;1.00;;;;;;;;;;5041811;28;20961;-81
2023/08/03 02:21:37;;;;;;;3.00;1.60;;;;;;;;;;5042199;28;20517;-80
2023/08/03 02:24:04;;;;;;;2.33;1.30;;;;;;;;;;5037181;28;20454;-80
2023/08/03 02:26:30;;;;;;;2.57;1.30;;;;;;;;;;5042297;28;20534;-81
2023/08/03 02:28:57;;;;;;;2.73;1.70;;;;;;;;;;5041234;28;20509;-80
2023/08/03 02:31:25;;;;;;;2.50;1.50;;;;;;;;;;5042177;28;20536;-82
2023/08/03 02:33:51;;;;;;;4.73;1.60;;;;;;;;;;5042194;28;20481;-81
2023/08/03 02:36:17;;;;;;;2.40;1.87;;;;;;;;;;5041753;28;20449;-82
2023/08/03 02:38:44;;;;;;;4.83;1.83;;;;;;;;;;5041811;28;20894;-81
2023/08/03 02:41:10;;;;;;;6.63;1.50;;;;;;;;;;5041920;28;20513;-81
2023/08/03 02:43:36;;;;;;;2.33;1.70;;;;;;;;;;5041156;28;20476;-80
2023/08/03 02:46:03;;;;;;;2.17;1.37;;;;;;;;;;5041527;28;21028;-82
2023/08/03 02:48:31;;;;;;;3.23;1.70;;;;;;;;;;5041835;28;20513;-82
2023/08/03 02:50:58;;;;;;;2.50;2.30;;;;;;;;;;5041528;28;21024;-81
2023/08/03 02:53:24;;;;;;;4.53;1.90;;;;;;;;;;5041478;28;20481;-82
2023/08/03 02:55:51;;;;;;;2.97;1.77;;;;;;;;;;5041524;28;20442;-81
2023/08/03 02:58:17;;;;;;;3.27;2.13;;;;;;;;;;5041167;28;20490;-79
2023/08/03 03:00:44;;;;;;;2.77;2.23;;;;;;;;;;5041263;28;20461;-80
2023/08/03 03:03:10;;;;;;;2.67;2.10;;;;;;;;;;5041627;28;20449;-78
2023/08/03 03:05:39;;;;;;;3.70;1.90;;;;;;;;;;5036663;28;20458;-79
2023/08/03 03:08:06;;;;;;;4.83;2.70;;;;;;;;;;5034676;28;20485;-80
2023/08/03 03:10:32;;;;;;;5.70;3.33;;;;;;;;;;5041194;28;20536;-79
2023/08/03 03:12:58;;;;;;;2.60;1.93;;;;;;;;;;5040448;28;20489;-79
2023/08/03 03:15:25;;;;;;;4.90;2.10;;;;;;;;;;5038446;28;20521;-80
2023/08/03 03:17:51;;;;;;;4.10;3.43;;;;;;;;;;5041333;28;21163;-80
2023/08/03 03:20:17;;;;;;;3.10;2.17;;;;;;;;;;5041083;28;20517;-82
2023/08/03 03:22:45;;;;;;;4.10;2.80;;;;;;;;;;5041194;28;20457;-81
2023/08/03 03:25:12;;;;;;;4.57;2.73;;;;;;;;;;5033615;28;20462;-82
2023/08/03 03:27:38;;;;;;;3.97;2.67;;;;;;;;;;5040733;28;20517;-81
2023/08/03 03:30:05;;;;;;;3.70;2.50;;;;;;;;;;5041334;28;20441;-80
2023/08/03 03:32:31;;;;;;;2.93;2.30;;;;;;;;;;5040549;28;20914;-81
2023/08/03 03:34:57;;;;;;;3.70;2.43;;;;;;;;;;5041126;28;20458;-82
2023/08/03 03:37:24;;;;;;;3.37;2.30;;;;;;;;;;5038303;28;20481;-81
2023/08/03 03:39:52;;;;;;;4.60;2.50;;;;;;;;;;5041139;28;20529;-82
2023/08/03 03:42:19;;;;;;;3.00;2.10;;;;;;;;;;5036822;28;20450;-81
2023/08/03 03:44:45;;;;;;;3.43;2.33;;;;;;;;;;5040881;28;20580;-80
2023/08/03 03:47:11;;;;;;;3.57;2.67;;;;;;;;;;5040498;28;20486;-82
2023/08/03 03:49:38;;;;;;;4.83;3.00;;;;;;;;;;5040807;28;20457;-81
2023/08/03 03:52:04;;;;;;;5.77;2.53;;;;;;;;;;5041211;28;20493;-82
2023/08/03 03:54:31;;;;;;;3.90;3.20;;;;;;;;;;5040808;28;20457;-81
2023/08/03 03:57:00;;;;;;;3.83;2.80;;;;;;;;;;5040869;28;20449;-81
2023/08/03 03:59:26;;;;;;;5.10;2.90;;;;;;;;;;5040082;28;20469;-81
2023/08/03 04:01:53;;;;;;;4.77;3.13;;;;;;;;;;5040721;28;20813;-82
2023/08/03 04:04:19;;;;;;;4.97;3.17;;;;;;;;;;5040459;28;20534;-80
2023/08/03 04:06:46;;;;;;;7.40;3.20;;;;;;;;;;5041086;28;20497;-80
2023/08/03 04:09:12;;;;;;;5.10;3.27;;;;;;;;;;5040033;28;20489;-80
2023/08/03 04:11:38;;;;;;;7.70;3.50;;;;;;;;;;5036973;28;20528;-79
2023/08/03 04:14:06;;;;;;;7.60;3.57;;;;;;;;;;5040111;28;20572;-81
2023/08/03 04:16:32;;;;;;;5.20;3.10;;;;;;;;;;5040971;28;20449;-81
2023/08/03 04:18:59;;;;;;;5.40;3.17;;;;;;;;;;5040651;28;20576;-81
2023/08/03 04:21:25;;;;;;;6.00;3.13;;;;;;;;;;5037666;28;20530;-82
2023/08/03 04:23:51;;;;;;;6.07;2.70;;;;;;;;;;5038463;28;20540;-82
2023/08/03 04:26:18;;;;;;;4.33;3.10;;;;;;;;;;5033716;28;20492;-81
2023/08/03 04:28:44;;;;;;;5.33;2.60;;;;;;;;;;5039899;28;20465;-82
2023/08/03 04:31:12;;;;;;;5.30;3.27;;;;;;;;;;5040702;28;20509;-82
2023/08/03 04:33:38;;;;;;;4.10;2.97;;;;;;;;;;5040327;28;20545;-81
2023/08/03 04:36:05;;;;;;;6.03;2.97;;;;;;;;;;5040564;28;20488;-80
2023/08/03 04:38:31;;;;;;;4.90;2.87;;;;;;;;;;5039084;28;20460;-81
2023/08/03 04:41:00;;;;;;;4.10;3.33;;;;;;;;;;5038555;28;20533;-79
2023/08/03 04:43:26;;;;;;;7.23;2.90;;;;;;;;;;5038468;28;20470;-80
2023/08/03 04:45:52;;;;;;;6.60;4.03;;;;;;;;;;5042360;28;20457;-79
2023/08/03 04:48:20;;;;;;;6.83;3.40;;;;;;;;;;5042424;28;20576;-78
2023/08/03 04:50:47;;;;;;;5.50;3.33;;;;;;;;;;5042890;28;20528;-81
2023/08/03 04:53:13;;;;;;;6.07;2.90;;;;;;;;;;5042768;28;20977;-81
2023/08/03 04:55:40;;;;;;;5.27;3.17;;;;;;;;;;5042596;28;20474;-82
2023/08/03 04:58:06;;;;;;;6.10;2.83;;;;;;;;;;5041987;28;20476;-81
2023/08/03 05:00:33;;;;;;;4.83;2.67;;;;;;;;;;5042535;28;20493;-79
2023/08/03 05:02:59;;;;;;;5.43;3.07;;;;;;;;;;5042736;28;21266;-79
2023/08/03 05:05:27;;;;;;;4.73;3.00;;;;;;;;;;5041696;28;20479;-77
2023/08/03 05:07:53;;;;;;;6.40;3.30;;;;;;;;;;5042985;28;20537;-78
2023/08/03 05:10:19;;;;;;;4.40;3.17;;;;;;;;;;5038943;28;20542;-79
2023/08/03 05:12:46;;;;;;;7.37;2.60;;;;;;;;;;5036704;28;21171;-79
2023/08/03 05:15:12;;;;;;;4.93;2.50;;;;;;;;;;5035801;28;20488;-79
2023/08/03 05:17:38;;;;;;;5.90;3.07;;;;;;;;;;5037824;28;20486;-82
2023/08/03 05:20:05;;;;;;;6.43;3.00;;;;;;;;;;5039228;28;20484;-77
2023/08/03 05:22:33;;;;;;;5.47;3.10;;;;;;;;;;5040916;28;20466;-79
2023/08/03 05:24:59;;;;;;;7.67;3.00;;;;;;;;;;5040494;28;20577;-78
2023/08/03 05:27:26;;;;;;;5.40;2.33;;;;;;;;;;5034210;28;21048;-79
2023/08/03 05:29:52;;;;;;;5.20;3.10;;;;;;;;;;5040428;28;20521;-80
2023/08/03 05:32:19;;;;;;;10.50;2.97;;;;;;;;;;5042237;28;20492;-79
2023/08/03 05:34:45;;;;;;;7.43;2.77;;;;;;;;;;5041687;28;20523;-79
2023/08/03 05:37:14;;;;;;;6.57;3.00;;;;;;;;;;5041884;28;20434;-81
2023/08/03 05:39:42;;;;;;;4.07;2.57;;;;;;;;;;5041568;28;20446;-82
2023/08/03 05:42:11;;;;;;;3.17;2.30;;;;;;;;;;5040878;28;20514;-81
2023/08/03 05:44:38;;;;;;;2.80;2.33;;;;;;;;;;5029544;28;20531;-81
2023/08/03 05:47:05;;;;;;;3.73;2.23;;;;;;;;;;5040622;28;20501;-81
2023/08/03 05:49:32;;;;;;;3.90;2.17;;;;;;;;;;5036223;28;21381;-81
2023/08/03 05:51:58;;;;;;;6.53;3.07;;;;;;;;;;5037575;28;20537;-81
2023/08/03 05:54:24;;;;;;;4.73;2.33;;;;;;;;;;5040889;28;20457;-80
2023/08/03 05:56:52;;;;;;;8.57;3.03;;;;;;;;;;5036244;28;20497;-79
2023/08/03 05:59:20;;;;;;;3.63;2.20;;;;;;;;;;5035658;28;20533;-79
2023/08/03 06:01:47;;;;;;;5.47;2.07;;;;;;;;;;5032903;28;20465;-80
2023/08/03 06:04:15;;;;;;;3.20;2.00;;;;;;;;;;5036895;28;20469;-80
2023/08/03 06:06:41;;;;;;;2.60;2.13;;;;;;;;;;5035034;28;20565;-76
2023/08/03 06:09:10;;;;;;;4.47;2.23;;;;;;;;;;5041212;28;21000;-76
2023/08/03 06:11:36;;;;;;;4.47;2.07;;;;;;;;;;5035983;28;20475;-76
2023/08/03 06:14:05;;;;;;;5.53;2.43;;;;;;;;;;5038161;28;20470;-75
2023/08/03 06:16:31;;;;;;;3.70;2.33;;;;;;;;;;5040009;28;20933;-75
2023/08/03 06:18:59;;;;;;;3.40;2.40;;;;;;;;;;5034237;28;20480;-76
2023/08/03 06:21:26;;;;;;;4.97;2.40;;;;;;;;;;5036008;28;20492;-86
2023/08/03 06:23:53;;;;;;;4.83;2.30;;;;;;;;;;5040131;28;20450;-87
2023/08/03 06:26:20;;;;;;;4.20;2.60;;;;;;;;;;5034488;28;20472;-85
2023/08/03 06:28:49;;;;;;;2.77;1.60;;;;;;;;;;5034745;28;20478;-87
2023/08/03 06:31:20;;;;;;;7.07;2.47;;;;;;;;;;5039408;28;20468;-86
2023/08/03 06:33:47;;;;;;;2.73;2.03;;;;;;;;;;5031978;28;20578;-87
2023/08/03 06:36:17;;;;;;;3.53;2.07;;;;;;;;;;5035946;28;20528;-77
2023/08/03 06:38:44;;;;;;;5.93;2.60;;;;;;;;;;5033868;28;20454;-77
2023/08/03 06:41:10;;;;;;;4.00;2.33;;;;;;;;;;5032007;28;20482;-77
2023/08/03 06:43:37;;;;;;;3.27;2.40;;;;;;;;;;5038410;28;20468;-79
2023/08/03 06:46:04;;;;;;;3.80;2.10;;;;;;;;;;5039055;28;20481;-79
2023/08/03 06:48:32;;;;;;;6.20;2.10;;;;;;;;;;5039685;28;20532;-78
2023/08/03 06:50:58;;;;;;;3.80;2.63;;;;;;;;;;5039816;28;20521;-77
2023/08/03 06:53:25;;;;;;;5.03;2.30;;;;;;;;;;5037943;28;20476;-77
2023/08/03 06:55:51;;;;;;;5.73;2.23;;;;;;;;;;5039235;28;20484;-78
2023/08/03 06:58:18;;;;;;;5.00;2.10;;;;;;;;;;5040059;28;20533;-79
2023/08/03 07:00:45;;;;;;;2.60;1.97;;;;;;;;;;5040462;28;20453;-78
2023/08/03 07:03:11;;;;;;;1.97;1.80;;;;;;;;;;5038323;28;20450;-78
2023/08/03 07:05:39;;;;;;;5.47;2.60;;;;;;;;;;5039892;28;20500;-80
2023/08/03 07:08:06;;;;;;;2.53;1.93;;;;;;;;;;5040898;28;20512;-79
2023/08/03 07:10:33;;;;;;;2.70;2.10;;;;;;;;;;5031729;28;20458;-80
2023/08/03 07:12:59;;;;;;;3.07;1.63;;;;;;;;;;5036656;28;20492;-81
2023/08/03 07:15:26;;;;;;;2.50;1.83;;;;;;;;;;5042628;28;20530;-80
2023/08/03 07:17:52;;;;;;;1.90;1.70;;;;;;;;;;5034890;28;20549;-80
2023/08/03 07:20:19;;;;;;;3.83;2.23;;;;;;;;;;5039855;28;20493;-79
2023/08/03 07:22:48;;;;;;;2.47;1.53;;;;;;;;;;5040431;28;20490;-80
2023/08/03 07:25:15;;;;;;;3.60;1.60;;;;;;;;;;5037095;28;20481;-80
2023/08/03 07:27:41;;;;;;;2.77;1.80;;;;;;;;;;5038793;28;20493;-79
2023/08/03 07:30:08;;;;;;;1.73;1.60;;;;;;;;;;5039997;28;20473;-80
2023/08/03 07:32:35;;;;;;;1.97;1.50;;;;;;;;;;5034135;28;20531;-80
2023/08/03 07:35:01;;;;;;;3.00;2.20;;;;;;;;;;5035633;28;20450;-78
2023/08/03 07:37:27;;;;;;;7.60;1.90;;;;;;;;;;5040071;28;20480;-79
2023/08/03 07:39:55;;;;;;;3.73;1.67;;;;;;;;;;5034341;28;20478;-77
2023/08/03 07:42:22;;;;;;;3.50;1.87;;;;;;;;;;5036151;28;20526;-76
2023/08/03 07:44:48;;;;;;;3.03;2.10;;;;;;;;;;5033211;28;20471;-76
2023/08/03 07:47:14;;;;;;;3.63;2.10;;;;;;;;;;5035340;28;20446;-79
2023/08/03 07:49:41;;;;;;;2.90;2.23;;;;;;;;;;5036014;28;20595;-77
2023/08/03 07:52:08;;;;;;;3.87;2.40;;;;;;;;;;5032703;28;20469;-77
2023/08/03 07:54:34;;;;;;;3.43;2.17;;;;;;;;;;5032704;28;20543;-76
2023/08/03 07:57:02;;;;;;;2.30;1.80;;;;;;;;;;5035456;28;20505;-76
2023/08/03 07:59:28;;;;;;;2.63;2.40;;;;;;;;;;5035111;28;20450;-79
2023/08/03 08:01:55;;;;;;;3.30;1.67;;;;;;;;;;5035570;28;20470;-76
2023/08/03 08:04:21;;;;;;;1.90;1.63;;;;;;;;;;5034780;28;20497;-77
2023/08/03 08:06:47;;;;;;;2.13;1.90;;;;;;;;;;5031980;28;20502;-77
2023/08/03 08:09:14;;;;;;;2.13;1.87;;;;;;;;;;5029868;28;20496;-76
2023/08/03 08:11:40;;;;;;;3.50;2.20;;;;;;;;;;5035440;28;21418;-77
2023/08/03 08:14:08;;;;;;;2.30;1.83;;;;;;;;;;5032062;28;20553;-77
2023/08/03 08:16:34;;;;;;;2.07;1.73;;;;;;;;;;5031167;28;20454;-77
2023/08/03 08:19:01;;;;;;;2.20;1.97;;;;;;;;;;5037949;28;20457;-77
2023/08/03 08:21:27;;;;;;;1.93;1.57;;;;;;;;;;5039395;28;20453;-76
2023/08/03 08:23:54;;;;;;;1.10;1.00;;;;;;;;;;5040197;28;20453;-77
2023/08/03 08:26:21;;;;;;;1.40;1.30;;;;;;;;;;5035345;28;20488;-77
2023/08/03 08:28:47;;;;;;;1.30;1.20;;;;;;;;;;5035548;28;20486;-76
2023/08/03 08:31:15;;;;;;;3.73;1.63;;;;;;;;;;5037048;28;20509;-76
2023/08/03 08:33:42;;;;;;;1.60;1.40;;;;;;;;;;5041029;28;20453;-77
2023/08/03 08:36:09;;;;;;;2.80;1.93;;;;;;;;;;5036361;28;20461;-75
2023/08/03 08:38:35;;;;;;;1.73;1.63;;;;;;;;;;5034978;28;20446;-78
2023/08/03 08:41:02;;;;;;;2.10;1.80;;;;;;;;;;5034606;28;20466;-77
2023/08/03 08:43:29;;;;;;;1.60;1.50;;;;;;;;;;5036679;28;20532;-77
2023/08/03 08:45:55;;;;;;;2.00;1.67;;;;;;;;;;5032946;28;20489;-77
2023/08/03 08:48:23;;;;;;;1.60;1.50;;;;;;;;;;5034875;28;20510;-77
2023/08/03 08:50:50;;;;;;;1.93;1.57;;;;;;;;;;5036426;28;20534;-75
2023/08/03 08:53:16;;;;;;;2.27;1.90;;;;;;;;;;5032868;28;20477;-77
2023/08/03 08:55:42;;;;;;;2.00;1.57;;;;;;;;;;5031469;28;20458;-77
2023/08/03 08:58:09;;;;;;;2.10;2.00;;;;;;;;;;5032996;28;20518;-76
2023/08/03 09:00:41;;;;;;;2.83;2.30;;;;;;;;;;5034902;28;20446;-76
2023/08/03 09:03:08;;;;;;;2.40;2.07;;;;;;;;;;5038079;28;20450;-75
2023/08/03 09:05:36;;;;;;;2.30;2.07;;;;;;;;;;5030446;28;20477;-76
2023/08/03 09:08:04;;;;;;;2.30;2.20;;;;;;;;;;5033353;28;20482;-76
2023/08/03 09:10:30;;;;;;;2.47;2.27;;;;;;;;;;5035376;28;20938;-74
2023/08/03 09:12:56;;;;;;;3.00;2.70;;;;;;;;;;5029415;28;20490;-76
2023/08/03 09:15:36;;;;;;;2.80;2.60;;;;;;;;;;5041458;28;20464;-77
2023/08/03 09:18:05;;;;;;;2.87;2.67;;;;;;;;;;5032467;28;20450;-76
2023/08/03 09:20:32;;;;;;;3.10;2.90;;;;;;;;;;5038441;28;20530;-76
2023/08/03 09:23:00;;;;;;;3.17;2.87;;;;;;;;;;5039146;28;20497;-78
2023/08/03 09:25:27;;;;;;;9.43;3.80;;;;;;;;;;5041796;28;20855;-79
2023/08/03 09:27:54;;;;;;;3.43;3.13;;;;;;;;;;5040040;28;20465;-78
2023/08/03 09:30:21;;;;;;;3.40;3.13;;;;;;;;;;5041069;28;20453;-75
2023/08/03 09:32:47;;;;;;;3.67;3.37;;;;;;;;;;5041921;28;20454;-78
2023/08/03 09:35:17;;;;;;;3.53;3.23;;;;;;;;;;5033691;28;20450;-80
2023/08/03 09:37:44;;;;;;;4.63;3.40;;;;;;;;;;5041250;28;20502;-77
2023/08/03 09:40:12;;;;;;;3.40;3.10;;;;;;;;;;5041326;28;20467;-76
2023/08/03 09:42:40;;;;;;;4.10;3.80;;;;;;;;;;5032027;28;20459;-78
2023/08/03 09:45:08;;;;;;;2.80;2.57;;;;;;;;;;5041855;28;20457;-77
2023/08/03 09:47:35;;;;;;;3.73;3.30;;;;;;;;;;5038933;28;20456;-77
2023/08/03 09:50:01;;;;;;;2.77;2.57;;;;;;;;;;5039478;28;20495;-79
2023/08/03 09:52:29;;;;;;;2.87;2.67;;;;;;;;;;5039890;28;20544;-78
2023/08/03 09:54:59;;;;;;;3.03;2.83;;;;;;;;;;5038689;28;20464;-78
2023/08/03 09:57:29;;;;;;;3.33;3.13;;;;;;;;;;5041307;28;20441;-78
2023/08/03 10:00:00;;;;;;;3.07;2.87;;;;;;;;;;5046462;28;20458;-79
2023/08/03 10:02:29;;;;;;;3.83;3.53;;;;;;;;;;5037327;28;20451;-77
2023/08/03 10:04:59;;;;;;;3.50;3.27;;;;;;;;;;5037608;28;21118;-77
2023/08/03 10:07:27;;;;;;;3.67;3.33;;;;;;;;;;5035878;28;20490;-78
2023/08/03 10:09:57;;;;;;;5.23;3.20;;;;;;;;;;5037001;28;20494;-76
2023/08/03 10:12:28;;;;;;;3.77;3.50;;;;;;;;;;5044804;28;20555;-76
2023/08/03 10:14:56;;;;;;;4.40;3.17;;;;;;;;;;5040223;28;20493;-76
2023/08/03 10:17:24;;;;;;;3.83;3.53;;;;;;;;;;5040411;28;20435;-76
2023/08/03 10:19:52;;;;;;;4.50;3.90;;;;;;;;;;5041119;28;20561;-77
2023/08/03 10:22:18;;;;;;;3.77;3.50;;;;;;;;;;5042332;28;20506;-78
2023/08/03 10:24:59;;;;;;;4.00;3.60;;;;;;;;;;5045804;28;20494;-76
2023/08/03 10:27:26;;;;;;;4.50;4.10;;;;;;;;;;5043389;28;20540;-76
2023/08/03 10:29:52;;;;;;;4.07;3.77;;;;;;;;;;5033031;28;20608;-75
2023/08/03 10:32:21;;;;;;;5.30;4.90;;;;;;;;;;5036141;28;20545;-73
2023/08/03 10:34:48;;;;;;;4.90;4.50;;;;;;;;;;5037079;28;20538;-74
2023/08/03 10:37:14;;;;;;;5.00;4.60;;;;;;;;;;5041501;28;21121;-75
2023/08/03 10:39:47;;;;;;;6.23;5.67;;;;;;;;;;5041768;28;20476;-73
2023/08/03 10:42:30;;;;;;;5.30;5.00;;;;;;;;;;5040344;28;20450;-74
2023/08/03 10:45:18;;;;;;;5.73;5.30;;;;;;;;;;5035008;28;20514;-76
2023/08/03 10:47:46;;;;;;;4.67;4.30;;;;;;;;;;5032700;28;20453;-75
2023/08/03 10:50:12;;;;;;;5.00;4.47;;;;;;;;;;5045722;28;20560;-76
2023/08/03 10:52:39;;;;;;;6.67;3.70;;;;;;;;;;5036483;28;20478;-76
2023/08/03 10:55:26;;;;;;;4.20;3.90;;;;;;;;;;5038253;28;20493;-76
2023/08/03 10:57:53;;;;;;;5.03;4.00;;;;;;;;;;5024179;28;20564;-76
2023/08/03 11:00:19;;;;;;;6.80;3.60;;;;;;;;;;5041042;28;20446;-77
2023/08/03 11:02:47;;;;;;;3.40;3.10;;;;;;;;;;5039779;28;20457;-76
2023/08/03 11:05:14;;;;;;;4.10;3.60;;;;;;;;;;5041254;28;20822;-77
2023/08/03 11:07:41;;;;;;;6.73;4.20;;;;;;;;;;5041671;28;20478;-77
2023/08/03 11:10:10;;;;;;;3.73;3.43;;;;;;;;;;5041060;28;20500;-78
2023/08/03 11:12:37;;;;;;;4.10;3.40;;;;;;;;;;5040447;28;20473;-78
2023/08/03 11:15:05;;;;;;;4.90;3.80;;;;;;;;;;5046383;28;20465;-79
2023/08/03 11:17:33;;;;;;;4.40;4.00;;;;;;;;;;5039203;28;20449;-79
2023/08/03 11:20:02;;;;;;;4.13;3.73;;;;;;;;;;5038477;28;20453;-78
2023/08/03 11:22:28;;;;;;;5.00;4.10;;;;;;;;;;5040572;28;20445;-78
2023/08/03 11:24:56;;;;;;;4.47;3.97;;;;;;;;;;5040102;28;20449;-77
2023/08/03 11:27:23;;;;;;;4.73;3.97;;;;;;;;;;5031493;28;20540;-78
2023/08/03 11:29:50;;;;;;;6.77;3.90;;;;;;;;;;5041482;28;20521;-77
2023/08/03 11:32:21;;;;;;;4.00;3.67;;;;;;;;;;5040189;28;20573;-78
2023/08/03 11:34:48;;;;;;;4.10;3.70;;;;;;;;;;5030845;28;20470;-76
2023/08/03 11:37:16;;;;;;;5.07;3.80;;;;;;;;;;5033045;28;20453;-76
2023/08/03 11:39:42;;;;;;;4.47;3.80;;;;;;;;;;5034440;28;20457;-76
2023/08/03 11:42:09;;;;;;;4.10;3.77;;;;;;;;;;5036993;28;20464;-77
2023/08/03 11:44:38;;;;;;;4.20;3.90;;;;;;;;;;5033409;28;21024;-74
2023/08/03 11:47:05;;;;;;;4.13;3.83;;;;;;;;;;5032434;28;20475;-76
2023/08/03 11:49:32;;;;;;;4.37;3.97;;;;;;;;;;5025270;28;20482;-77
2023/08/03 11:52:00;;;;;;;4.50;4.10;;;;;;;;;;5029323;28;20455;-76
2023/08/03 11:54:29;;;;;;;4.20;3.90;;;;;;;;;;5034584;28;20484;-74
2023/08/03 11:58:07;;;;;;;4.10;3.80;;;;;;;;;;5040600;28;20461;-76
2023/08/03 11:59:42;;;;;;;5.57;4.40;;;;;;;;;;5029902;28;20474;-77
2023/08/03 12:02:09;;;;;;;4.53;3.33;;;;;;;;;;5036514;28;20500;-76
2023/08/03 12:04:35;;;;;;;3.90;3.60;;;;;;;;;;5035939;28;20278;-76
2023/08/03 12:07:02;;;;;;;3.43;3.10;;;;;;;;;;5027346;28;20479;-76
2023/08/03 12:09:36;;;;;;;3.70;3.40;;;;;;;;;;5026705;28;20513;-76
2023/08/03 12:12:02;;;;;;;5.20;3.07;;;;;;;;;;5034666;28;21342;-77
2023/08/03 12:14:29;;;;;;;3.50;3.20;;;;;;;;;;5029278;28;20562;-77
2023/08/03 12:16:55;;;;;;;3.50;3.20;;;;;;;;;;5031738;28;20488;-76
2023/08/03 12:19:22;;;;;;;3.53;3.23;;;;;;;;;;5031800;28;20480;-76
2023/08/03 12:21:48;;;;;;;4.33;3.47;;;;;;;;;;5041158;28;20924;-76
2023/08/03 12:24:15;;;;;;;3.87;3.33;;;;;;;;;;5023841;28;20450;-77
2023/08/03 12:26:42;;;;;;;3.83;3.53;;;;;;;;;;5035563;28;20500;-77
2023/08/03 12:29:09;;;;;;;4.07;3.67;;;;;;;;;;5032799;28;21206;-75
2023/08/03 12:31:36;;;;;;;3.90;3.60;;;;;;;;;;5025785;28;20485;-75
2023/08/03 12:34:03;;;;;;;3.57;3.37;;;;;;;;;;5031973;28;21115;-76
2023/08/03 12:36:29;;;;;;;3.70;3.40;;;;;;;;;;5032930;28;21089;-76
2023/08/03 12:38:56;;;;;;;4.27;3.87;;;;;;;;;;5034914;28;21503;-75
2023/08/03 12:41:22;;;;;;;4.13;3.93;;;;;;;;;;5026464;28;20548;-75
2023/08/03 12:43:50;;;;;;;3.90;3.60;;;;;;;;;;5033088;28;20529;-75
2023/08/03 12:46:17;;;;;;;4.67;4.37;;;;;;;;;;5028969;28;20464;-75
2023/08/03 12:48:43;;;;;;;4.97;4.57;;;;;;;;;;5033317;28;20465;-75
2023/08/03 12:51:10;;;;;;;4.90;4.50;;;;;;;;;;5041620;28;20825;-77
2023/08/03 12:53:37;;;;;;;5.00;4.70;;;;;;;;;;5041853;28;20489;-75
2023/08/03 12:56:04;;;;;;;5.00;4.60;;;;;;;;;;5042053;28;20488;-77
2023/08/03 12:58:30;;;;;;;5.30;4.90;;;;;;;;;;5036403;28;20465;-79
2023/08/03 13:00:59;;;;;;;4.97;4.43;;;;;;;;;;5036552;28;20862;-77
2023/08/03 13:03:26;;;;;;;6.50;5.07;;;;;;;;;;5037853;28;20500;-78
2023/08/03 13:05:54;;;;;;;6.37;5.87;;;;;;;;;;5039935;28;20537;-76
2023/08/03 13:08:20;;;;;;;6.60;6.10;;;;;;;;;;5040020;28;20496;-75
2023/08/03 13:10:47;;;;;;;6.57;6.10;;;;;;;;;;5040998;28;20512;-77
2023/08/03 13:13:17;;;;;;;7.23;5.97;;;;;;;;;;5036831;28;20531;-77
2023/08/03 13:15:43;;;;;;;6.03;5.63;;;;;;;;;;5038936;28;20457;-77
2023/08/03 13:18:11;;;;;;;6.40;5.80;;;;;;;;;;5042179;28;20454;-77
2023/08/03 13:20:37;;;;;;;7.00;6.40;;;;;;;;;;5038799;28;20521;-76
2023/08/03 13:23:04;;;;;;;6.80;6.20;;;;;;;;;;5032816;28;20494;-76
2023/08/03 13:25:30;;;;;;;7.10;5.30;;;;;;;;;;5033826;28;20537;-77
2023/08/03 13:27:57;;;;;;;6.17;5.57;;;;;;;;;;5036269;28;20460;-77
2023/08/03 13:30:23;;;;;;;5.60;5.10;;;;;;;;;;5040860;28;20497;-77
2023/08/03 13:32:50;;;;;;;5.03;4.37;;;;;;;;;;5039232;28;20454;-76
2023/08/03 13:35:17;;;;;;;7.33;4.60;;;;;;;;;;5041537;28;20462;-77
2023/08/03 13:37:44;;;;;;;5.23;4.73;;;;;;;;;;5034789;28;20974;-77
2023/08/03 13:40:11;;;;;;;5.47;5.07;;;;;;;;;;5032313;28;20478;-76
2023/08/03 13:42:37;;;;;;;5.47;4.97;;;;;;;;;;5039063;28;20523;-77
2023/08/03 13:45:04;;;;;;;6.00;5.00;;;;;;;;;;5040645;28;20465;-76
2023/08/03 13:47:30;;;;;;;6.30;5.00;;;;;;;;;;5039987;28;20476;-77
2023/08/03 13:49:57;;;;;;;4.53;4.13;;;;;;;;;;5034944;28;20496;-76
2023/08/03 13:52:25;;;;;;;5.53;5.00;;;;;;;;;;5039630;28;20482;-77
2023/08/03 13:54:51;;;;;;;4.67;4.03;;;;;;;;;;5034147;28;20525;-77
2023/08/03 13:57:18;;;;;;;10.90;5.07;;;;;;;;;;5042438;28;20482;-77
2023/08/03 13:59:44;;;;;;;4.93;3.90;;;;;;;;;;5029483;28;20489;-77
2023/08/03 14:02:11;;;;;;;11.47;4.53;;;;;;;;;;5041466;28;20460;-77
2023/08/03 14:04:38;;;;;;;5.10;3.50;;;;;;;;;;5041699;28;20509;-77
2023/08/03 14:07:04;;;;;;;5.93;3.37;;;;;;;;;;5034439;28;20464;-77
2023/08/03 14:09:33;;;;;;;6.13;2.80;;;;;;;;;;5037417;28;20481;-77
2023/08/03 14:11:59;;;;;;;5.63;3.20;;;;;;;;;;5041149;28;20477;-77
2023/08/03 14:14:25;;;;;;;9.40;3.50;;;;;;;;;;5041142;28;20470;-77
2023/08/03 14:16:52;;;;;;;4.20;2.60;;;;;;;;;;5041103;28;20464;-77
2023/08/03 14:19:18;;;;;;;3.93;3.10;;;;;;;;;;5041529;28;20521;-77
2023/08/03 14:21:45;;;;;;;6.73;3.30;;;;;;;;;;5042041;28;20481;-78
2023/08/03 14:24:12;;;;;;;3.93;2.50;;;;;;;;;;5040844;28;20454;-77
2023/08/03 14:26:39;;;;;;;3.80;2.30;;;;;;;;;;5040322;28;20442;-76
2023/08/03 14:29:06;;;;;;;2.70;2.20;;;;;;;;;;5041560;28;20486;-77
2023/08/03 14:31:32;;;;;;;5.90;3.00;;;;;;;;;;5037666;28;20572;-78
2023/08/03 14:33:59;;;;;;;3.57;2.10;;;;;;;;;;5039038;28;20488;-77
2023/08/03 14:36:25;;;;;;;4.43;2.20;;;;;;;;;;5045217;28;20484;-76
2023/08/03 14:38:54;;;;;;;4.10;3.00;;;;;;;;;;5034290;28;20541;-77
2023/08/03 14:41:21;;;;;;;5.23;2.63;;;;;;;;;;5035064;28;20458;-76
2023/08/03 14:43:50;;;;;;;5.13;2.60;;;;;;;;;;5031004;28;20512;-76